Time;durP1;ratioP1;P1;durP2;ratioP2;P2;SDS_P1;SDS_P2;PMS_P1;PMS_P2;Temp;Humidity;BMP_temperature;BMP_pressure;BME280_temperature;BME280_humidity;BME280_pressure;Samples;Min_cycle;Max_cycle;Signal;HPM_P1;HPM_P2
2022/10/28 00:02:11;;;;;;;;;;;;;;;13.07;99.15;97286.09;5060410;28;20001;-74
2022/10/28 00:04:37;;;;;;;;;;;;;;;13.09;99.84;97289.34;5065052;28;19952;-74
2022/10/28 00:07:03;;;;;;;;;;;;;;;13.07;99.31;97281.66;5066140;28;20462;-73
2022/10/28 00:09:29;;;;;;;;;;;;;;;13.06;99.07;97276.59;5065839;28;20348;-74
2022/10/28 00:11:54;;;;;;;;;;;;;;;13.04;100.00;97282.09;5062670;28;19951;-74
2022/10/28 00:14:20;;;;;;;;;;;;;;;13.03;99.46;97277.81;5065866;28;20489;-74
2022/10/28 00:16:46;;;;;;;;;;;;;;;13.02;99.36;97272.75;5068947;28;19953;-74
2022/10/28 00:19:12;;;;;;;;;;;;;;;12.99;99.27;97274.78;5067850;28;19962;-74
2022/10/28 00:21:39;;;;;;;;;;;;;;;12.97;99.35;97268.13;5057251;28;19964;-74
2022/10/28 00:24:06;;;;;;;;;;;;;;;12.96;98.84;97266.53;5067799;28;19956;-73
2022/10/28 00:26:35;;;;;;;;;;;;;;;12.93;99.18;97270.38;5063748;28;19972;-74
2022/10/28 00:29:09;;;;;;;;;;;;;;;12.93;99.30;97262.47;5061086;28;19960;-73
2022/10/28 00:31:35;;;;;;;;;;;;;;;12.93;99.69;97280.09;5063599;28;19948;-73
2022/10/28 00:34:02;;;;;;;;;;;;;;;12.92;99.85;97281.16;5066953;28;19960;-74
2022/10/28 00:36:30;;;;;;;;;;;;;;;12.91;100.00;97284.78;5061785;28;19962;-74
2022/10/28 00:38:57;;;;;;;;;;;;;;;12.90;99.98;97283.19;5061805;28;19957;-74
2022/10/28 00:41:25;;;;;;;;;;;;;;;12.90;99.89;97281.34;5062515;28;19958;-74
2022/10/28 00:43:52;;;;;;;;;;;;;;;12.88;100.00;97282.59;5066673;28;19958;-74
2022/10/28 00:46:25;;;;;;;;;;;;;;;12.86;99.71;97271.47;5057677;28;19953;-75
2022/10/28 00:49:10;;;;;;;;;;;;;;;12.83;99.48;97275.31;5060440;28;20464;-73
2022/10/28 00:51:36;;;;;;;;;;;;;;;12.82;99.38;97278.16;5063179;28;19951;-74
2022/10/28 00:54:03;;;;;;;;;;;;;;;12.81;99.83;97274.72;5058683;28;19951;-76
2022/10/28 00:56:31;;;;;;;;;;;;;;;12.79;99.90;97269.66;5062187;28;19953;-74
2022/10/28 00:58:58;;;;;;;;;;;;;;;12.78;100.00;97270.66;5069184;28;19949;-74
2022/10/28 01:01:24;;;;;;;;;;;;;;;12.76;100.00;97270.06;5062528;28;19951;-73
2022/10/28 01:03:50;;;;;;;;;;;;;;;12.75;99.96;97267.69;5059229;28;20015;-74
2022/10/28 01:06:16;;;;;;;;;;;;;;;12.72;99.85;97263.63;5047034;28;19977;-73
2022/10/28 01:08:42;;;;;;;;;;;;;;;12.71;100.00;97277.00;5066693;28;19973;-74
2022/10/28 01:11:08;;;;;;;;;;;;;;;12.68;100.00;97270.34;5046238;28;19959;-73
2022/10/28 01:13:40;;;;;;;;;;;;;;;12.67;100.00;97271.34;5056223;28;19949;-74
2022/10/28 01:16:14;;;;;;;;;;;;;;;12.65;100.00;97270.75;5062415;28;19980;-73
2022/10/28 01:19:06;;;;;;;;;;;;;;;12.64;100.00;97260.44;5063119;28;19947;-74
2022/10/28 01:21:42;;;;;;;;;;;;;;;12.62;100.00;97267.72;5028242;28;19946;-74
2022/10/28 01:24:23;;;;;;;;;;;;;;;12.58;100.00;97267.38;5068291;28;19953;-74
2022/10/28 01:27:04;;;;;;;;;;;;;;;12.55;100.00;97262.50;5064995;28;20340;-75
2022/10/28 01:29:39;;;;;;;;;;;;;;;12.52;100.00;97269.00;5060791;28;19989;-74
2022/10/28 01:32:05;;;;;;;;;;;;;;;12.51;100.00;97259.47;5073702;28;20306;-74
2022/10/28 01:34:35;;;;;;;;;;;;;;;12.47;100.00;97255.66;5057235;28;19954;-75
2022/10/28 01:37:12;;;;;;;;;;;;;;;12.46;100.00;97258.50;5061694;28;19959;-74
2022/10/28 01:39:41;;;;;;;;;;;;;;;12.42;100.00;97246.78;5068956;28;20408;-73
2022/10/28 01:42:06;;;;;;;;;;;;;;;12.41;100.00;97253.06;5065035;28;20018;-74
2022/10/28 01:45:05;;;;;;;;;;;;;;;12.39;100.00;97250.66;5065628;28;19982;-73
2022/10/28 01:47:34;;;;;;;;;;;;;;;12.36;100.00;97261.56;5026321;28;19948;-73
2022/10/28 01:50:04;;;;;;;;;;;;;;;12.35;100.00;97252.09;5068879;28;19968;-73
2022/10/28 01:52:30;;;;;;;;;;;;;;;12.34;100.00;97250.47;5062416;28;19952;-74
2022/10/28 01:55:09;;;;;;;;;;;;;;;12.33;100.00;97259.38;5070174;28;19958;-73
2022/10/28 01:57:37;;;;;;;;;;;;;;;12.30;100.00;97255.31;5068887;28;19949;-73
2022/10/28 02:00:03;;;;;;;;;;;;;;;12.29;100.00;97252.91;5061087;28;20404;-73
2022/10/28 02:02:31;;;;;;;;;;;;;;;12.28;100.00;97249.47;5069133;28;19977;-74
2022/10/28 02:05:04;;;;;;;;;;;;;;;12.27;100.00;97250.50;5065611;28;19952;-73
2022/10/28 02:07:31;;;;;;;;;;;;;;;12.26;100.00;97250.69;5069058;28;19974;-73
2022/10/28 02:10:02;;;;;;;;;;;;;;;12.27;100.00;97245.22;5062780;28;19968;-73
2022/10/28 02:12:31;;;;;;;;;;;;;;;12.28;100.00;97251.28;5066658;28;19969;-74
2022/10/28 02:15:00;;;;;;;;;;;;;;;12.28;100.00;97246.03;5066675;28;19976;-73
2022/10/28 02:17:25;;;;;;;;;;;;;;;12.27;100.00;97245.22;5064826;28;19974;-74
2022/10/28 02:20:08;;;;;;;;;;;;;;;12.28;100.00;97238.13;5070119;28;20399;-73
2022/10/28 02:22:34;;;;;;;;;;;;;;;12.29;100.00;97240.56;5069175;28;20431;-73
2022/10/28 02:25:15;;;;;;;;;;;;;;;12.29;100.00;97235.31;5066643;28;19951;-73
2022/10/28 02:27:46;;;;;;;;;;;;;;;12.29;100.00;97235.31;5069125;28;19961;-73
2022/10/28 02:30:15;;;;;;;;;;;;;;;12.28;100.00;97225.78;5064315;28;20317;-74
2022/10/28 02:32:45;;;;;;;;;;;;;;;12.27;100.00;97223.38;5066728;28;20310;-73
2022/10/28 02:35:16;;;;;;;;;;;;;;;12.26;100.00;97219.94;5067093;28;19953;-73
2022/10/28 02:37:43;;;;;;;;;;;;;;;12.25;100.00;97228.84;5066802;28;19960;-73
2022/10/28 02:40:12;;;;;;;;;;;;;;;12.25;100.00;97226.22;5068698;28;19960;-74
2022/10/28 02:42:41;;;;;;;;;;;;;;;12.26;100.00;97238.34;5066404;28;19953;-76
2022/10/28 02:45:10;;;;;;;;;;;;;;;12.25;100.00;97228.84;5050014;28;19951;-74
2022/10/28 02:47:39;;;;;;;;;;;;;;;12.24;100.00;97237.78;5046508;28;20318;-74
2022/10/28 02:50:08;;;;;;;;;;;;;;;12.23;100.00;97233.50;5071439;28;19968;-73
2022/10/28 02:52:34;;;;;;;;;;;;;;;12.23;100.00;97244.03;5067848;28;20035;-74
2022/10/28 02:55:03;;;;;;;;;;;;;;;12.22;100.00;97231.09;5065219;28;20335;-74
2022/10/28 02:57:31;;;;;;;;;;;;;;;12.23;100.00;97232.72;5056201;28;19976;-73
2022/10/28 02:59:59;;;;;;;;;;;;;;;12.23;100.00;97236.13;5069985;28;19958;-75
2022/10/28 03:02:25;;;;;;;;;;;;;;;12.25;100.00;97223.59;5055924;28;19960;-73
2022/10/28 03:04:51;;;;;;;;;;;;;;;12.25;100.00;97228.84;5067942;28;19956;-73
2022/10/28 03:07:17;;;;;;;;;;;;;;;12.28;100.00;97225.00;5063253;28;19980;-75
2022/10/28 03:09:43;;;;;;;;;;;;;;;12.30;100.00;97228.22;5068231;28;19964;-74
2022/10/28 03:12:09;;;;;;;;;;;;;;;12.32;100.00;97229.63;5064268;28;20013;-74
2022/10/28 03:14:36;;;;;;;;;;;;;;;12.35;100.00;97231.84;5066348;28;19996;-75
2022/10/28 03:17:01;;;;;;;;;;;;;;;12.38;100.00;97236.66;5062830;28;19947;-74
2022/10/28 03:19:27;;;;;;;;;;;;;;;12.41;100.00;97232.84;5041555;28;19959;-75
2022/10/28 03:21:53;;;;;;;;;;;;;;;12.43;100.00;97235.25;5068642;28;19980;-74
2022/10/28 03:24:19;;;;;;;;;;;;;;;12.43;100.00;97232.59;5064358;28;19960;-73
2022/10/28 03:26:45;;;;;;;;;;;;;;;12.46;100.00;97227.75;5064964;28;20396;-73
2022/10/28 03:29:11;;;;;;;;;;;;;;;12.47;100.00;97218.81;5064736;28;19966;-74
2022/10/28 03:31:37;;;;;;;;;;;;;;;12.50;100.00;97226.31;5065159;28;20004;-74
2022/10/28 03:34:03;;;;;;;;;;;;;;;12.53;100.00;97217.97;5046094;28;19961;-74
2022/10/28 03:36:28;;;;;;;;;;;;;;;12.60;100.00;97212.69;5064778;28;19963;-74
2022/10/28 03:38:54;;;;;;;;;;;;;;;12.65;100.00;97219.97;5062464;28;20028;-73
2022/10/28 03:41:20;;;;;;;;;;;;;;;12.68;100.00;97224.78;5071566;28;19958;-73
2022/10/28 03:43:46;;;;;;;;;;;;;;;12.69;100.00;97221.94;5067165;28;19994;-73
2022/10/28 03:46:12;;;;;;;;;;;;;;;12.70;100.00;97223.53;5058036;28;19958;-74
2022/10/28 03:48:38;;;;;;;;;;;;;;;12.69;100.00;97221.94;5066242;28;19959;-73
2022/10/28 03:51:04;;;;;;;;;;;;;;;12.70;100.00;97217.47;5066776;28;19961;-74
2022/10/28 03:53:30;;;;;;;;;;;;;;;12.70;100.00;97210.38;5064074;28;19988;-74
2022/10/28 03:55:57;;;;;;;;;;;;;;;12.75;100.00;97210.56;5058491;28;19958;-73
2022/10/28 03:58:24;;;;;;;;;;;;;;;12.81;100.00;97211.56;5063305;28;19954;-73
2022/10/28 04:00:50;;;;;;;;;;;;;;;12.81;100.00;97203.66;5064279;28;20349;-74
2022/10/28 04:03:17;;;;;;;;;;;;;;;12.83;100.00;97206.88;5067633;28;19949;-73
2022/10/28 04:05:43;;;;;;;;;;;;;;;12.84;100.00;97195.31;5060253;28;19971;-74
2022/10/28 04:08:09;;;;;;;;;;;;;;;12.85;100.00;97191.69;5063849;28;19952;-73
2022/10/28 04:10:35;;;;;;;;;;;;;;;12.87;100.00;97205.44;5062640;28;19979;-74
2022/10/28 04:13:02;;;;;;;;;;;;;;;12.91;100.00;97197.91;5064214;28;19956;-74
2022/10/28 04:15:28;;;;;;;;;;;;;;;12.93;100.00;97196.66;5064985;28;20403;-74
2022/10/28 04:17:54;;;;;;;;;;;;;;;12.99;100.00;97206.34;5058668;28;19956;-73
2022/10/28 04:20:20;;;;;;;;;;;;;;;13.00;100.00;97209.81;5063416;28;20014;-73
2022/10/28 04:22:46;;;;;;;;;;;;;;;13.02;100.00;97193.75;5070592;28;20331;-73
2022/10/28 04:25:12;;;;;;;;;;;;;;;13.03;100.00;97196.19;5066841;28;19959;-74
2022/10/28 04:27:38;;;;;;;;;;;;;;;13.04;100.00;97203.09;5030405;28;19955;-74
2022/10/28 04:30:04;;;;;;;;;;;;;;;13.03;100.00;97187.50;5060463;28;20011;-74
2022/10/28 04:32:30;;;;;;;;;;;;;;;13.02;100.00;97199.84;5046183;28;19952;-73
2022/10/28 04:34:56;;;;;;;;;;;;;;;13.00;100.00;97194.00;5063258;28;19962;-74
2022/10/28 04:37:22;;;;;;;;;;;;;;;12.99;100.00;97192.38;5066541;28;19962;-74
2022/10/28 04:39:48;;;;;;;;;;;;;;;12.98;100.00;97201.31;5063372;28;20048;-74
2022/10/28 04:42:14;;;;;;;;;;;;;;;12.98;100.00;97198.69;5059809;28;20011;-74
2022/10/28 04:44:40;;;;;;;;;;;;;;;12.97;100.00;97199.69;5061871;28;19954;-73
2022/10/28 04:47:06;;;;;;;;;;;;;;;12.98;100.00;97199.47;5065563;28;19986;-74
2022/10/28 04:49:32;;;;;;;;;;;;;;;12.96;100.00;97198.88;5063095;28;19972;-74
2022/10/28 04:51:58;;;;;;;;;;;;;;;12.98;100.00;97206.56;5061937;28;20018;-74
2022/10/28 04:54:23;;;;;;;;;;;;;;;12.98;100.00;97202.09;5060596;28;19951;-74
2022/10/28 04:56:49;;;;;;;;;;;;;;;12.97;100.00;97202.31;5062081;28;19969;-74
2022/10/28 04:59:15;;;;;;;;;;;;;;;12.97;100.00;97199.69;5068833;28;19955;-74
2022/10/28 05:01:41;;;;;;;;;;;;;;;12.95;100.00;97196.44;5060797;28;19975;-73
2022/10/28 05:04:07;;;;;;;;;;;;;;;12.93;100.00;97195.84;5044424;28;20023;-74
2022/10/28 05:06:33;;;;;;;;;;;;;;;12.91;100.00;97190.00;5064211;28;20071;-74
2022/10/28 05:08:59;;;;;;;;;;;;;;;12.89;100.00;97195.50;5062881;28;19957;-74
2022/10/28 05:11:24;;;;;;;;;;;;;;;12.89;100.00;97184.16;5069383;28;20008;-75
2022/10/28 05:13:52;;;;;;;;;;;;;;;12.88;100.00;97191.25;5058440;28;19962;-74
2022/10/28 05:16:17;;;;;;;;;;;;;;;12.86;100.00;97180.13;5061572;28;19967;-74
2022/10/28 05:18:43;;;;;;;;;;;;;;;12.86;100.00;97176.69;5064079;28;19953;-74
2022/10/28 05:21:09;;;;;;;;;;;;;;;12.86;100.00;97187.22;5065919;28;19962;-74
2022/10/28 05:23:35;;;;;;;;;;;;;;;12.85;100.00;97182.97;5060101;28;19958;-74
2022/10/28 05:26:01;;;;;;;;;;;;;;;12.85;100.00;97182.97;5064088;28;20004;-74
2022/10/28 05:28:27;;;;;;;;;;;;;;;12.83;100.00;97170.03;5069697;28;19954;-75
2022/10/28 05:30:53;;;;;;;;;;;;;;;12.86;100.00;97184.59;5058146;28;20061;-74
2022/10/28 05:33:19;;;;;;;;;;;;;;;12.86;100.00;97174.84;5063293;28;19966;-73
2022/10/28 05:35:45;;;;;;;;;;;;;;;12.88;100.00;97174.66;5064608;28;20016;-73
2022/10/28 05:38:11;;;;;;;;;;;;;;;12.88;100.00;97182.53;5062800;28;19963;-75
2022/10/28 05:40:37;;;;;;;;;;;;;;;12.88;100.00;97180.72;5059659;28;19956;-74
2022/10/28 05:43:03;;;;;;;;;;;;;;;12.86;100.00;97177.50;5068300;28;19958;-74
2022/10/28 05:45:29;;;;;;;;;;;;;;;12.86;100.00;97179.31;5060878;28;20433;-74
2022/10/28 05:47:55;;;;;;;;;;;;;;;12.85;100.00;97175.88;5057560;28;19946;-74
2022/10/28 05:50:21;;;;;;;;;;;;;;;12.83;100.00;97171.84;5061487;28;19980;-74
2022/10/28 05:52:47;;;;;;;;;;;;;;;12.83;100.00;97179.72;5065248;28;19956;-73
2022/10/28 05:55:13;;;;;;;;;;;;;;;12.83;100.00;97182.38;5065299;28;20388;-73
2022/10/28 05:57:39;;;;;;;;;;;;;;;12.81;100.00;97185.22;5069130;28;19958;-74
2022/10/28 06:00:05;;;;;;;;;;;;;;;12.80;100.00;97184.41;5062095;28;19964;-74
2022/10/28 06:02:31;;;;;;;;;;;;;;;12.80;100.00;97188.88;5063862;28;19956;-73
2022/10/28 06:04:57;;;;;;;;;;;;;;;12.78;100.00;97190.91;5060095;28;19957;-73
2022/10/28 06:07:23;;;;;;;;;;;;;;;12.77;100.00;97186.69;5065294;28;19988;-74
2022/10/28 06:09:49;;;;;;;;;;;;;;;12.76;100.00;97185.06;5061700;28;19975;-74
2022/10/28 06:12:16;;;;;;;;;;;;;;;12.77;100.00;97176.16;5059859;28;19955;-74
2022/10/28 06:14:41;;;;;;;;;;;;;;;12.78;100.00;97169.84;5063121;28;19955;-73
2022/10/28 06:17:07;;;;;;;;;;;;;;;12.78;100.00;97189.06;5064745;28;19952;-74
2022/10/28 06:19:33;;;;;;;;;;;;;;;12.82;100.00;97178.13;5068221;28;19956;-73
2022/10/28 06:21:59;;;;;;;;;;;;;;;12.84;100.00;97173.47;5055823;28;20003;-74
2022/10/28 06:24:25;;;;;;;;;;;;;;;12.89;100.00;97184.97;5059954;28;20006;-73
2022/10/28 06:26:51;;;;;;;;;;;;;;;13.02;100.00;97191.13;5065126;28;19963;-73
2022/10/28 06:29:17;;;;;;;;;;;;;;;13.12;100.00;97171.22;5072219;28;19957;-74
2022/10/28 06:31:43;;;;;;;;;;;;;;;13.26;100.00;97189.53;5068301;28;19954;-74
2022/10/28 06:34:09;;;;;;;;;;;;;;;13.38;98.30;97164.13;5063568;28;20403;-73
2022/10/28 06:36:35;;;;;;;;;;;;;;;13.42;96.84;97154.75;5062830;28;20472;-73
2022/10/28 06:39:01;;;;;;;;;;;;;;;13.48;96.06;97151.25;5056234;28;19961;-74
2022/10/28 06:41:27;;;;;;;;;;;;;;;13.50;96.73;97164.19;5069020;28;19959;-74
2022/10/28 06:43:53;;;;;;;;;;;;;;;13.49;96.94;97165.22;5063881;28;20413;-74
2022/10/28 06:46:19;;;;;;;;;;;;;;;13.47;98.77;97164.63;5063839;28;20007;-74
2022/10/28 06:48:45;;;;;;;;;;;;;;;13.46;97.32;97168.28;5066727;28;19970;-74
2022/10/28 06:51:11;;;;;;;;;;;;;;;13.46;98.15;97186.72;5071161;28;20363;-74
2022/10/28 06:53:37;;;;;;;;;;;;;;;13.44;100.00;97200.13;5069905;28;20438;-74
2022/10/28 06:56:03;;;;;;;;;;;;;;;13.44;99.26;97191.41;5060328;28;19966;-74
2022/10/28 06:58:28;;;;;;;;;;;;;;;13.44;100.00;97207.22;5066347;28;19969;-74
2022/10/28 07:00:54;;;;;;;;;;;;;;;13.43;100.00;97213.53;5075473;28;19963;-74
2022/10/28 07:03:20;;;;;;;;;;;;;;;13.42;100.00;97211.91;5064535;28;19958;-73
2022/10/28 07:05:48;;;;;;;;;;;;;;;13.39;99.82;97199.97;5059756;28;19965;-74
2022/10/28 07:08:14;;;;;;;;;;;;;;;13.36;100.00;97208.31;5055295;28;19959;-74
2022/10/28 07:10:40;;;;;;;;;;;;;;;13.33;100.00;97214.84;5066012;28;20065;-74
2022/10/28 07:13:06;;;;;;;;;;;;;;;13.33;100.00;97221.91;5061709;28;19958;-74
2022/10/28 07:15:32;;;;;;;;;;;;;;;13.32;100.00;97220.31;5061775;28;19964;-74
2022/10/28 07:17:58;;;;;;;;;;;;;;;13.33;100.00;97221.91;5065019;28;20411;-74
2022/10/28 07:20:25;;;;;;;;;;;;;;;13.34;100.00;97228.81;5068924;28;19960;-74
2022/10/28 07:23:00;;;;;;;;;;;;;;;13.35;100.00;97217.22;5071802;28;20347;-74
2022/10/28 07:25:27;;;;;;;;;;;;;;;13.36;100.00;97219.66;5066367;28;19950;-73
2022/10/28 07:27:55;;;;;;;;;;;;;;;13.38;100.00;97207.06;5059094;28;19973;-74
2022/10/28 07:30:20;;;;;;;;;;;;;;;13.40;100.00;97212.94;5066615;28;19985;-73
2022/10/28 07:32:46;;;;;;;;;;;;;;;13.42;100.00;97220.63;5065016;28;19987;-73
2022/10/28 07:35:12;;;;;;;;;;;;;;;13.44;100.00;97221.22;5064255;28;19961;-74
2022/10/28 07:37:38;;;;;;;;;;;;;;;13.47;100.00;97233.16;5056877;28;19988;-74
2022/10/28 07:40:05;;;;;;;;;;;;;;;13.47;100.00;97226.03;5065582;28;19979;-74
2022/10/28 07:42:34;;;;;;;;;;;;;;;13.51;100.00;97240.41;5066149;28;20416;-74
2022/10/28 07:45:00;;;;;;;;;;;;;;;13.58;100.00;97241.13;5070594;28;19950;-74
2022/10/28 07:47:26;;;;;;;;;;;;;;;13.66;100.00;97234.78;5063814;28;19991;-73
2022/10/28 07:49:53;;;;;;;;;;;;;;;13.67;100.00;97239.03;5063529;28;19972;-74
2022/10/28 07:52:19;;;;;;;;;;;;;;;13.70;100.00;97238.59;5054733;28;19951;-74
2022/10/28 07:54:45;;;;;;;;;;;;;;;13.71;100.00;97240.22;5064859;28;19946;-76
2022/10/28 07:57:11;;;;;;;;;;;;;;;13.73;100.00;97237.34;5059594;28;19955;-73
2022/10/28 07:59:37;;;;;;;;;;;;;;;13.75;100.00;97243.22;5064102;28;19954;-74
2022/10/28 08:02:03;;;;;;;;;;;;;;;13.76;100.00;97229.81;5057625;28;19950;-75
2022/10/28 08:04:30;;;;;;;;;;;;;;;13.80;100.00;97231.00;5065228;28;19958;-73
2022/10/28 08:06:56;;;;;;;;;;;;;;;13.84;100.00;97234.00;5064049;28;19992;-74
2022/10/28 08:09:21;;;;;;;;;;;;;;;13.87;100.00;97230.91;5066593;28;19959;-74
2022/10/28 08:11:47;;;;;;;;;;;;;;;13.91;99.16;97229.47;5063314;28;19955;-74
2022/10/28 08:14:13;;;;;;;;;;;;;;;13.96;99.59;97240.16;5061908;28;20014;-74
2022/10/28 08:16:39;;;;;;;;;;;;;;;14.01;100.00;97235.03;5054978;28;20041;-73
2022/10/28 08:19:05;;;;;;;;;;;;;;;14.06;100.00;97244.09;5069140;28;19963;-74
2022/10/28 08:21:31;;;;;;;;;;;;;;;14.12;99.55;97228.22;5062124;28;20330;-73
2022/10/28 08:23:57;;;;;;;;;;;;;;;14.19;100.00;97236.03;5058097;28;19985;-74
2022/10/28 08:26:23;;;;;;;;;;;;;;;14.25;100.00;97235.16;5067276;28;20018;-74
2022/10/28 08:28:49;;;;;;;;;;;;;;;14.30;100.00;97230.03;5065347;28;19959;-74
2022/10/28 08:31:15;;;;;;;;;;;;;;;14.37;100.00;97233.38;5063360;28;19969;-73
2022/10/28 08:33:43;;;;;;;;;;;;;;;14.45;99.04;97229.63;5060736;28;19953;-73
2022/10/28 08:36:10;;;;;;;;;;;;;;;14.53;96.95;97221.41;5059107;28;19962;-73
2022/10/28 08:38:36;;;;;;;;;;;;;;;14.64;94.95;97206.66;5062171;28;20012;-73
2022/10/28 08:41:05;;;;;;;;;;;;;;;14.71;97.08;97225.06;5067987;28;19965;-74
2022/10/28 08:43:49;;;;;;;;;;;;;;;14.77;93.43;97201.19;5066632;28;19955;-73
2022/10/28 08:46:18;;;;;;;;;;;;;;;14.86;92.99;97196.38;5046792;28;20433;-74
2022/10/28 08:48:44;;;;;;;;;;;;;;;14.97;91.04;97189.50;5061830;28;19949;-73
2022/10/28 08:51:13;;;;;;;;;;;;;;;15.08;91.22;97190.59;5065499;28;19965;-73
2022/10/28 08:53:43;;;;;;;;;;;;;;;15.19;91.10;97197.72;5065545;28;19965;-74
2022/10/28 08:56:14;;;;;;;;;;;;;;;15.27;91.08;97201.84;5062497;28;19955;-73
2022/10/28 08:58:42;;;;;;;;;;;;;;;15.33;88.78;97188.53;5045669;28;19949;-75
2022/10/28 09:01:15;;;;;;;;;;;;;;;15.42;88.65;97195.06;5047337;28;19955;-73
2022/10/28 09:03:43;;;;;;;;;;;;;;;15.55;88.12;97193.22;5062157;28;19945;-73
2022/10/28 09:06:09;;;;;;;;;;;;;;;15.63;88.63;97196.31;5062107;28;19977;-76
2022/10/28 09:08:38;;;;;;;;;;;;;;;15.71;88.31;97208.41;5053685;28;19958;-77
2022/10/28 09:11:22;;;;;;;;;;;;;;;15.78;88.48;97195.06;5048341;28;20547;-74
2022/10/28 09:13:48;;;;;;;;;;;;;;;15.85;88.88;97202.88;5044504;28;19961;-74
2022/10/28 09:16:17;;;;;;;;;;;;;;;15.92;88.36;97206.22;5044297;28;19950;-73
2022/10/28 09:18:50;;;;;;;;;;;;;;;15.98;86.79;97184.91;5059731;28;20320;-73
2022/10/28 09:21:18;;;;;;;;;;;;;;;16.09;84.71;97177.19;5059205;28;19958;-74
2022/10/28 09:23:55;;;;;;;;;;;;;;;16.16;86.07;97186.56;5061910;28;19958;-74
2022/10/28 09:26:30;;;;;;;;;;;;;;;16.32;86.79;97192.19;5058927;28;19962;-74
2022/10/28 09:29:05;;;;;;;;;;;;;;;16.47;87.46;97204.91;5050250;28;19962;-73
2022/10/28 09:31:45;;;;;;;;;;;;;;;16.61;84.72;97183.19;5059798;28;19990;-73
2022/10/28 09:34:11;;;;;;;;;;;;;;;16.77;85.91;97194.03;5043913;28;19948;-74
2022/10/28 09:36:41;;;;;;;;;;;;;;;16.92;84.26;97178.41;5064487;28;20383;-73
2022/10/28 09:39:13;;;;;;;;;;;;;;;17.10;82.72;97161.50;5066719;28;19961;-74
2022/10/28 09:41:40;;;;;;;;;;;;;;;17.34;85.57;97178.00;5062729;28;19955;-74
2022/10/28 09:44:29;;;;;;;;;;;;;;;17.55;80.61;97143.81;5062754;28;19957;-74
2022/10/28 09:46:58;;;;;;;;;;;;;;;17.73;80.73;97150.69;5062436;28;19966;-74
2022/10/28 09:49:26;;;;;;;;;;;;;;;17.87;80.71;97143.19;5059987;28;19961;-74
2022/10/28 09:51:55;;;;;;;;;;;;;;;17.95;79.28;97138.25;5065277;28;19965;-74
2022/10/28 09:54:26;;;;;;;;;;;;;;;17.98;75.47;97111.22;5064152;28;19953;-74
2022/10/28 09:56:52;;;;;;;;;;;;;;;17.96;77.21;97134.56;5066976;28;20426;-74
2022/10/28 09:59:18;;;;;;;;;;;;;;;17.93;80.22;97155.47;5061096;28;19960;-74
2022/10/28 10:01:46;;;;;;;;;;;;;;;17.93;79.36;97147.50;5062337;28;19957;-74
2022/10/28 10:04:19;;;;;;;;;;;;;;;17.94;77.21;97131.34;5043642;28;19961;-74
2022/10/28 10:06:48;;;;;;;;;;;;;;;18.01;78.55;97147.06;5067578;28;19973;-74
2022/10/28 10:09:19;;;;;;;;;;;;;;;18.20;77.43;97139.56;5067683;28;19961;-74
2022/10/28 10:11:46;;;;;;;;;;;;;;;18.48;78.94;97146.53;5060057;28;19972;-74
2022/10/28 10:14:15;;;;;;;;;;;;;;;18.69;77.28;97139.53;5049231;28;19961;-74
2022/10/28 10:16:56;;;;;;;;;;;;;;;18.76;74.00;97112.75;5065812;28;19955;-74
2022/10/28 10:19:22;;;;;;;;;;;;;;;18.76;75.53;97128.69;5073059;28;20334;-75
2022/10/28 10:21:49;;;;;;;;;;;;;;;18.75;74.88;97124.41;5044742;28;20000;-74
2022/10/28 10:24:31;;;;;;;;;;;;;;;18.72;75.50;97135.56;5062597;28;19951;-74
2022/10/28 10:26:59;;;;;;;;;;;;;;;18.63;73.98;97128.06;5056492;28;19963;-73
2022/10/28 10:29:25;;;;;;;;;;;;;;;18.61;76.47;97150.63;5061531;28;19986;-77
2022/10/28 10:32:10;;;;;;;;;;;;;;;18.57;76.10;97146.84;5067879;28;19970;-74
2022/10/28 10:34:36;;;;;;;;;;;;;;;18.56;76.82;97154.03;5057553;28;19958;-74
2022/10/28 10:37:02;;;;;;;;;;;;;;;18.59;78.55;97163.34;5062856;28;19970;-74
2022/10/28 10:39:34;;;;;;;;;;;;;;;18.61;77.57;97158.59;5067246;28;19960;-75
2022/10/28 10:42:00;;;;;;;;;;;;;;;18.70;78.06;97158.94;5066854;28;19948;-74
2022/10/28 10:44:30;;;;;;;;;;;;;;;18.92;79.65;97164.19;5066649;28;20007;-74
2022/10/28 10:46:59;;;;;;;;;;;;;;;19.25;76.53;97136.50;5065102;28;19961;-74
2022/10/28 10:49:26;;;;;;;;;;;;;;;19.57;74.39;97128.47;5059910;28;19954;-74
2022/10/28 10:51:57;;;;;;;;;;;;;;;19.84;75.64;97138.16;5055799;28;19976;-74
2022/10/28 10:54:25;;;;;;;;;;;;;;;20.00;71.25;97096.44;5064704;28;19964;-74
2022/10/28 10:56:51;;;;;;;;;;;;;;;20.04;71.36;97098.31;5065218;28;19951;-74
2022/10/28 10:59:21;;;;;;;;;;;;;;;20.11;68.13;97086.59;5066430;28;19951;-74
2022/10/28 11:01:47;;;;;;;;;;;;;;;20.29;68.41;97091.44;5061988;28;19948;-74
2022/10/28 11:04:17;;;;;;;;;;;;;;;20.52;70.10;97142.63;5072571;28;19960;-74
2022/10/28 11:06:47;;;;;;;;;;;;;;;20.64;66.21;97130.69;5062896;28;19980;-74
2022/10/28 11:09:19;;;;;;;;;;;;;;;20.67;70.02;97166.66;5065674;28;20417;-74
2022/10/28 11:11:45;;;;;;;;;;;;;;;20.66;68.73;97160.53;5065643;28;19969;-74
2022/10/28 11:14:13;;;;;;;;;;;;;;;20.67;67.34;97158.66;5067119;28;20072;-74
2022/10/28 11:16:47;;;;;;;;;;;;;;;20.65;68.69;97163.44;5075480;28;19953;-74
2022/10/28 11:19:19;;;;;;;;;;;;;;;20.59;69.16;97153.84;5068097;28;19949;-73
2022/10/28 11:21:48;;;;;;;;;;;;;;;20.48;70.50;97155.69;5067239;28;20309;-73
2022/10/28 11:24:17;;;;;;;;;;;;;;;20.39;70.92;97162.56;5064868;28;19952;-74
2022/10/28 11:26:55;;;;;;;;;;;;;;;20.32;71.66;97160.16;5070583;28;20335;-74
2022/10/28 11:29:21;;;;;;;;;;;;;;;20.24;72.51;97164.16;5037920;28;19963;-73
2022/10/28 11:32:06;;;;;;;;;;;;;;;20.18;71.96;97153.72;5058702;28;19955;-74
2022/10/28 11:34:34;;;;;;;;;;;;;;;20.13;73.19;97153.72;5065036;28;19963;-74
2022/10/28 11:37:08;;;;;;;;;;;;;;;20.13;73.18;97143.88;5072365;28;19953;-74
2022/10/28 11:39:40;;;;;;;;;;;;;;;20.16;72.61;97130.03;5075042;28;19958;-74
2022/10/28 11:42:12;;;;;;;;;;;;;;;20.20;72.46;97123.13;5062177;28;19952;-75
2022/10/28 11:44:44;;;;;;;;;;;;;;;20.24;73.73;97123.38;5074016;28;19952;-73
2022/10/28 11:47:16;;;;;;;;;;;;;;;20.25;72.22;97106.34;5039153;28;20358;-74
2022/10/28 11:50:01;;;;;;;;;;;;;;;20.26;72.57;97110.59;5067108;28;19962;-74
2022/10/28 11:52:37;;;;;;;;;;;;;;;20.27;72.39;97120.19;5063955;28;19976;-74
2022/10/28 11:55:19;;;;;;;;;;;;;;;20.26;71.33;97131.91;5065558;28;19954;-74
2022/10/28 11:58:00;;;;;;;;;;;;;;;20.26;69.94;97099.94;5054887;28;19951;-74
2022/10/28 12:00:29;;;;;;;;;;;;;;;20.28;68.83;97106.63;5072677;28;19953;-74
2022/10/28 12:03:27;;;;;;;;;;;;;;;20.36;70.53;97107.16;5063629;28;20439;-74
2022/10/28 12:06:08;;;;;;;;;;;;;;;20.49;71.53;97109.31;5030635;28;20358;-74
2022/10/28 12:08:34;;;;;;;;;;;;;;;20.63;70.90;97109.63;5074463;28;20401;-75
2022/10/28 12:11:18;;;;;;;;;;;;;;;20.72;67.55;97080.56;5054736;28;19969;-74
2022/10/28 12:14:05;;;;;;;;;;;;;;;20.83;70.72;97101.63;5070955;28;19955;-74
2022/10/28 12:16:41;;;;;;;;;;;;;;;21.00;69.26;97084.56;5067278;28;19952;-74
2022/10/28 12:19:07;;;;;;;;;;;;;;;21.14;66.81;97080.22;5067830;28;19954;-74
2022/10/28 12:21:35;;;;;;;;;;;;;;;21.22;67.41;97076.22;5054848;28;20010;-75
2022/10/28 12:24:03;;;;;;;;;;;;;;;21.27;66.39;97077.03;5070518;28;20429;-74
2022/10/28 12:26:41;;;;;;;;;;;;;;;21.37;66.04;97070.84;5054550;28;20422;-74
2022/10/28 12:29:27;;;;;;;;;;;;;;;21.46;65.09;97066.59;5050229;28;19948;-74
2022/10/28 12:31:56;;;;;;;;;;;;;;;21.47;64.09;97064.72;5064818;28;20335;-74
2022/10/28 12:34:26;;;;;;;;;;;;;;;21.41;64.75;97052.41;5064847;28;19968;-75
2022/10/28 12:36:57;;;;;;;;;;;;;;;21.35;64.09;97051.63;5059020;28;20450;-74
2022/10/28 12:39:26;;;;;;;;;;;;;;;21.36;67.34;97069.25;5073220;28;20421;-75
2022/10/28 12:41:52;;;;;;;;;;;;;;;21.41;65.93;97061.22;5062376;28;19979;-74
2022/10/28 12:44:19;;;;;;;;;;;;;;;21.47;68.56;97081.50;5060329;28;19958;-74
2022/10/28 12:46:48;;;;;;;;;;;;;;;21.57;67.45;97083.34;5045368;28;20430;-74
2022/10/28 12:49:18;;;;;;;;;;;;;;;21.68;64.14;97062.75;5057320;28;19953;-74